Time;durP1;ratioP1;P1;durP2;ratioP2;P2;SDS_P1;SDS_P2;PMS_P1;PMS_P2;Temp;Humidity;BMP_temperature;BMP_pressure;BME280_temperature;BME280_humidity;BME280_pressure;Samples;Min_cycle;Max_cycle;Signal;HPM_P1;HPM_P2
2020/12/28 00:01:56;;;;;;;;;;;;;;;21.47;28.82;97576.97;5120258;28;1906;-74
2020/12/28 00:04:21;;;;;;;;;;;;;;;21.47;28.38;97579.81;5120257;28;846;-74
2020/12/28 00:06:47;;;;;;;;;;;;;;;22.05;28.30;97562.47;5120727;28;634;-74
2020/12/28 00:09:12;;;;;;;;;;;;;;;22.40;27.49;97559.63;5120507;28;669;-74
2020/12/28 00:11:38;;;;;;;;;;;;;;;22.48;27.56;97560.94;5120251;28;674;-74
2020/12/28 00:14:03;;;;;;;;;;;;;;;22.52;27.05;97555.94;5119910;28;882;-74
2020/12/28 00:16:28;;;;;;;;;;;;;;;21.56;28.46;97557.28;5120164;28;819;-74
2020/12/28 00:18:54;;;;;;;;;;;;;;;21.57;28.40;97553.19;5120477;28;1037;-74
2020/12/28 00:21:19;;;;;;;;;;;;;;;21.43;28.37;97562.94;5120109;28;1910;-74
2020/12/28 00:23:45;;;;;;;;;;;;;;;22.05;28.30;97563.25;5120640;28;606;-74
2020/12/28 00:26:10;;;;;;;;;;;;;;;22.52;27.46;97558.75;5120530;28;590;-73
2020/12/28 00:28:36;;;;;;;;;;;;;;;22.68;27.21;97558.56;5120098;28;888;-74
2020/12/28 00:31:01;;;;;;;;;;;;;;;22.01;27.75;97561.78;5120341;28;977;-74
2020/12/28 00:33:26;;;;;;;;;;;;;;;21.66;28.25;97558.97;5120396;28;793;-74
2020/12/28 00:35:52;;;;;;;;;;;;;;;21.58;28.47;97557.59;5120371;28;649;-74
2020/12/28 00:38:17;;;;;;;;;;;;;;;21.51;28.29;97552.19;5121846;28;678;-74
2020/12/28 00:40:43;;;;;;;;;;;;;;;21.68;29.25;97561.31;5124098;28;1913;-74
2020/12/28 00:43:11;;;;;;;;;;;;;;;22.29;27.71;97560.81;5123703;28;896;-74
2020/12/28 00:45:37;;;;;;;;;;;;;;;22.41;27.47;97561.22;5124177;28;872;-74
2020/12/28 00:48:02;;;;;;;;;;;;;;;22.61;27.21;97561.66;5124137;28;853;-74
2020/12/28 00:50:28;;;;;;;;;;;;;;;22.63;27.01;97556.31;5106639;28;1141;-74
2020/12/28 00:52:54;;;;;;;;;;;;;;;22.70;26.99;97556.06;5123968;28;652;-74
2020/12/28 00:55:23;;;;;;;;;;;;;;;22.08;27.83;97553.06;5106324;28;1218;-74
2020/12/28 00:57:48;;;;;;;;;;;;;;;21.87;27.99;97550.97;5105713;28;1311;-74
2020/12/28 01:00:14;;;;;;;;;;;;;;;21.52;28.64;97553.75;5106085;28;1167;-74
2020/12/28 01:02:49;;;;;;;;;;;;;;;21.66;28.37;97553.28;5106371;28;1914;-74
2020/12/28 01:05:19;;;;;;;;;;;;;;;21.72;29.27;97551.47;5106401;28;1260;-74
2020/12/28 01:07:45;;;;;;;;;;;;;;;22.48;27.62;97538.25;5123977;28;607;-74
2020/12/28 01:10:41;;;;;;;;;;;;;;;22.60;27.22;97540.25;5110284;28;1204;-74
2020/12/28 01:13:08;;;;;;;;;;;;;;;22.78;27.10;97534.66;5105669;28;1293;-74
2020/12/28 01:15:35;;;;;;;;;;;;;;;21.81;28.48;97531.75;5114109;28;1336;-74
2020/12/28 01:18:01;;;;;;;;;;;;;;;21.91;28.25;97517.63;5085645;28;1194;-73
2020/12/28 01:20:39;;;;;;;;;;;;;;;21.79;28.24;97505.91;5085456;28;1972;-74
2020/12/28 01:23:07;;;;;;;;;;;;;;;21.60;28.99;97506.97;5085241;28;1189;-73
2020/12/28 01:25:45;;;;;;;;;;;;;;;22.18;27.99;97500.91;5085476;28;1157;-74
2020/12/28 01:28:11;;;;;;;;;;;;;;;22.55;27.66;97492.63;5085211;28;1142;-74
2020/12/28 01:30:37;;;;;;;;;;;;;;;22.41;27.64;97485.47;5102636;28;791;-74
2020/12/28 01:33:35;;;;;;;;;;;;;;;21.43;29.12;97488.56;5102481;28;945;-74
2020/12/28 01:36:01;;;;;;;;;;;;;;;21.14;29.16;97475.34;5085265;28;1247;-74
2020/12/28 01:38:26;;;;;;;;;;;;;;;21.37;29.65;97470.59;5085448;28;1280;-74
2020/12/28 01:40:52;;;;;;;;;;;;;;;21.97;28.71;97476.16;5085208;28;1962;-74
2020/12/28 01:43:35;;;;;;;;;;;;;;;22.23;27.82;97465.53;5084889;28;1287;-74
2020/12/28 01:46:02;;;;;;;;;;;;;;;22.55;27.52;97464.28;5102184;28;868;-74
2020/12/28 01:48:33;;;;;;;;;;;;;;;22.41;27.20;97470.50;5102496;28;643;-73
2020/12/28 01:50:59;;;;;;;;;;;;;;;21.20;29.34;97469.91;5068047;28;1079;-74
2020/12/28 01:53:25;;;;;;;;;;;;;;;21.67;28.24;97474.81;5084999;28;1420;-74
2020/12/28 01:56:01;;;;;;;;;;;;;;;21.53;28.28;97467.59;5085015;28;1062;-74
2020/12/28 01:58:27;;;;;;;;;;;;;;;21.25;29.31;97461.63;5084344;28;1302;-74
2020/12/28 02:00:53;;;;;;;;;;;;;;;22.01;28.72;97456.97;5101953;28;1968;-74
2020/12/28 02:03:18;;;;;;;;;;;;;;;22.55;27.57;97459.41;5084921;28;1343;-74
2020/12/28 02:05:56;;;;;;;;;;;;;;;22.93;26.86;97449.03;5084920;28;1343;-74
2020/12/28 02:08:21;;;;;;;;;;;;;;;22.29;27.55;97453.13;5084658;28;549;-74
2020/12/28 02:10:47;;;;;;;;;;;;;;;21.82;28.37;97454.00;5084513;28;1205;-74
2020/12/28 02:13:13;;;;;;;;;;;;;;;21.47;28.92;97449.63;5101718;28;982;-74
2020/12/28 02:15:58;;;;;;;;;;;;;;;21.50;29.16;97448.69;5083920;28;1203;-74
2020/12/28 02:18:30;;;;;;;;;;;;;;;22.30;27.92;97454.69;5101993;28;626;-74
2020/12/28 02:21:05;;;;;;;;;;;;;;;22.61;27.33;97451.06;5084624;28;1969;-74
2020/12/28 02:23:31;;;;;;;;;;;;;;;22.77;27.26;97448.00;5084181;28;1413;-74
2020/12/28 02:25:56;;;;;;;;;;;;;;;21.93;28.08;97461.34;5084310;28;1354;-74
2020/12/28 02:28:23;;;;;;;;;;;;;;;21.77;28.39;97446.09;5083966;28;1512;-74
2020/12/28 02:30:49;;;;;;;;;;;;;;;21.44;28.87;97448.47;5083996;28;1215;-73
2020/12/28 02:33:44;;;;;;;;;;;;;;;21.77;29.06;97434.78;5083935;28;1177;-73
2020/12/28 02:36:18;;;;;;;;;;;;;;;22.35;28.00;97428.59;5084116;28;1160;-74
2020/12/28 02:38:45;;;;;;;;;;;;;;;22.71;27.23;97421.50;5101843;28;632;-74
2020/12/28 02:41:10;;;;;;;;;;;;;;;22.74;27.36;97422.59;5084102;28;1905;-74
2020/12/28 02:43:54;;;;;;;;;;;;;;;21.97;27.87;97419.50;5101191;28;1081;-74
2020/12/28 02:46:38;;;;;;;;;;;;;;;21.63;28.78;97426.78;5101077;28;805;-74
2020/12/28 02:49:22;;;;;;;;;;;;;;;21.51;28.48;97416.31;5101354;28;497;-73
2020/12/28 02:52:06;;;;;;;;;;;;;;;21.55;28.53;97416.97;5101227;28;665;-73
2020/12/28 02:54:50;;;;;;;;;;;;;;;21.97;28.99;97419.50;5101381;28;477;-74
2020/12/28 02:57:34;;;;;;;;;;;;;;;22.40;28.03;97412.22;5101410;28;572;-73
2020/12/28 03:00:18;;;;;;;;;;;;;;;22.53;27.63;97404.41;5100802;28;1025;-74
2020/12/28 03:03:15;;;;;;;;;;;;;;;21.47;29.08;97404.31;5066377;28;1187;-74
2020/12/28 03:05:59;;;;;;;;;;;;;;;21.59;28.80;97401.44;5101022;28;497;-73
2020/12/28 03:08:43;;;;;;;;;;;;;;;21.54;28.61;97395.56;5101148;28;512;-73
2020/12/28 03:11:27;;;;;;;;;;;;;;;21.67;29.32;97387.81;5101356;28;643;-73
2020/12/28 03:14:11;;;;;;;;;;;;;;;22.30;28.38;97388.72;5100857;28;676;-74
2020/12/28 03:16:55;;;;;;;;;;;;;;;22.76;27.62;97389.69;5100572;28;848;-73
2020/12/28 03:19:39;;;;;;;;;;;;;;;22.29;27.94;97385.09;5100558;28;963;-74
2020/12/28 03:22:23;;;;;;;;;;;;;;;21.44;29.46;97382.59;5100756;28;1894;-73
2020/12/28 03:25:07;;;;;;;;;;;;;;;21.42;29.02;97385.09;5100712;28;508;-74
2020/12/28 03:28:01;;;;;;;;;;;;;;;21.21;29.98;97393.06;5046381;28;1056;-74
2020/12/28 03:30:45;;;;;;;;;;;;;;;22.27;28.62;97393.25;5100696;28;480;-74
2020/12/28 03:33:29;;;;;;;;;;;;;;;22.64;27.97;97393.44;5100490;28;927;-74
2020/12/28 03:36:13;;;;;;;;;;;;;;;22.80;27.47;97407.38;5100093;28;841;-73
2020/12/28 03:38:57;;;;;;;;;;;;;;;21.79;28.34;97403.16;5100523;28;631;-73
2020/12/28 03:41:41;;;;;;;;;;;;;;;21.67;28.77;97396.31;5100295;28;1984;-74
2020/12/28 03:44:25;;;;;;;;;;;;;;;21.01;29.78;97401.03;5100353;28;608;-74
2020/12/28 03:47:09;;;;;;;;;;;;;;;21.64;29.64;97396.44;5100478;28;488;-74
2020/12/28 03:49:53;;;;;;;;;;;;;;;22.17;28.56;97399.34;5100144;28;944;-74
2020/12/28 03:52:39;;;;;;;;;;;;;;;22.44;28.23;97398.72;5099781;28;921;-74
2020/12/28 03:55:23;;;;;;;;;;;;;;;22.73;27.51;97390.63;5100183;28;551;-73
2020/12/28 03:58:07;;;;;;;;;;;;;;;21.51;28.94;97388.00;5100233;28;587;-74
2020/12/28 04:00:51;;;;;;;;;;;;;;;21.08;29.56;97389.47;5100150;28;1910;-74
2020/12/28 04:03:34;;;;;;;;;;;;;;;21.45;28.84;97396.31;5099984;28;583;-74
2020/12/28 04:06:18;;;;;;;;;;;;;;;21.75;29.19;97394.78;5099777;28;955;-74
2020/12/28 04:09:03;;;;;;;;;;;;;;;22.20;28.26;97404.88;5099773;28;886;-74
2020/12/28 04:11:46;;;;;;;;;;;;;;;22.36;27.97;97396.13;5100081;28;584;-74
2020/12/28 04:14:16;;;;;;;;;;;;;;;22.53;27.66;97401.56;5099866;28;735;-74
2020/12/28 04:16:42;;;;;;;;;;;;;;;22.43;27.48;97388.59;5099941;28;587;-74
2020/12/28 04:19:07;;;;;;;;;;;;;;;21.71;28.59;97385.66;5099940;28;652;-74
2020/12/28 04:21:33;;;;;;;;;;;;;;;21.63;28.87;97387.16;5099619;28;1963;-74
2020/12/28 04:23:58;;;;;;;;;;;;;;;21.36;29.45;97386.94;5099889;28;868;-74
2020/12/28 04:26:24;;;;;;;;;;;;;;;21.72;28.90;97387.22;5099772;28;985;-74
2020/12/28 04:28:49;;;;;;;;;;;;;;;21.99;28.84;97377.34;5100026;28;655;-74
2020/12/28 04:31:15;;;;;;;;;;;;;;;22.31;27.88;97371.25;5099788;28;655;-74
2020/12/28 04:33:40;;;;;;;;;;;;;;;22.56;27.79;97386.47;5100322;28;730;-74
2020/12/28 04:36:06;;;;;;;;;;;;;;;22.51;27.20;97368.03;5099925;28;1015;-73
2020/12/28 04:38:31;;;;;;;;;;;;;;;21.98;28.12;97364.44;5099398;28;905;-74
2020/12/28 04:40:57;;;;;;;;;;;;;;;21.30;29.18;97370.53;5099548;28;1901;-74
2020/12/28 04:43:22;;;;;;;;;;;;;;;21.18;29.36;97359.22;5099996;28;993;-74
2020/12/28 04:45:48;;;;;;;;;;;;;;;21.26;29.57;97350.03;5082208;28;683;-74
2020/12/28 04:48:13;;;;;;;;;;;;;;;21.93;28.53;97345.19;5081947;28;827;-73
2020/12/28 04:50:39;;;;;;;;;;;;;;;22.23;27.98;97341.63;5099342;28;919;-73
2020/12/28 04:53:04;;;;;;;;;;;;;;;22.36;27.84;97328.13;5099864;28;785;-74
2020/12/28 04:55:30;;;;;;;;;;;;;;;22.67;27.23;97329.31;5099788;28;904;-74
2020/12/28 04:57:56;;;;;;;;;;;;;;;21.60;28.38;97317.28;5099500;28;670;-74
2020/12/28 05:00:21;;;;;;;;;;;;;;;21.56;28.83;97344.97;5099925;28;615;-74
2020/12/28 05:02:47;;;;;;;;;;;;;;;21.41;28.96;97349.56;5099761;28;1910;-74
2020/12/28 05:05:12;;;;;;;;;;;;;;;21.59;29.08;97349.69;5081800;28;901;-74
2020/12/28 05:07:37;;;;;;;;;;;;;;;22.29;27.73;97351.09;5099448;28;817;-74
2020/12/28 05:10:03;;;;;;;;;;;;;;;22.52;27.52;97357.47;5099644;28;994;-75
2020/12/28 05:12:29;;;;;;;;;;;;;;;22.75;26.91;97358.97;5081860;28;670;-74
2020/12/28 05:15:06;;;;;;;;;;;;;;;21.65;28.22;97373.31;5099593;28;618;-76
2020/12/28 05:17:32;;;;;;;;;;;;;;;21.51;28.47;97371.03;5064925;28;824;-73
2020/12/28 05:20:01;;;;;;;;;;;;;;;21.44;29.01;97382.59;5100253;28;828;-79
2020/12/28 05:22:27;;;;;;;;;;;;;;;22.06;27.94;97377.84;5083480;28;1911;-79
2020/12/28 05:24:52;;;;;;;;;;;;;;;22.31;27.54;97376.91;5087055;28;1142;-77
2020/12/28 05:27:18;;;;;;;;;;;;;;;22.76;27.61;97384.03;5086588;28;1228;-68
2020/12/28 05:29:43;;;;;;;;;;;;;;;21.21;31.00;97392.28;5085248;28;618;-67
2020/12/28 05:32:11;;;;;;;;;;;;;;;21.97;30.31;97385.53;5084879;28;929;-68
2020/12/28 05:34:36;;;;;;;;;;;;;;;21.81;30.86;97401.47;5085169;28;1244;-65
2020/12/28 05:37:02;;;;;;;;;;;;;;;22.00;30.76;97378.91;5102903;28;860;-65
2020/12/28 05:39:27;;;;;;;;;;;;;;;21.82;31.70;97380.38;5085525;28;646;-66
2020/12/28 05:41:56;;;;;;;;;;;;;;;21.68;32.09;97380.91;5102472;28;1914;-66
2020/12/28 05:44:25;;;;;;;;;;;;;;;21.81;31.83;97380.81;5102693;28;1166;-66
2020/12/28 05:47:00;;;;;;;;;;;;;;;21.60;32.40;97376.75;5102101;28;872;-65
2020/12/28 05:49:26;;;;;;;;;;;;;;;20.59;34.48;97375.75;5102400;28;964;-65
2020/12/28 05:51:52;;;;;;;;;;;;;;;22.35;31.14;97383.22;5085163;28;900;-65
2020/12/28 05:54:29;;;;;;;;;;;;;;;22.34;31.47;97372.38;5084679;28;1388;-66
2020/12/28 05:56:55;;;;;;;;;;;;;;;22.44;31.10;97381.69;5102309;28;607;-65
2020/12/28 05:59:21;;;;;;;;;;;;;;;21.03;33.50;97375.91;5102191;28;687;-64
2020/12/28 06:01:47;;;;;;;;;;;;;;;21.16;33.62;97373.03;5102463;28;1910;-66
2020/12/28 06:04:16;;;;;;;;;;;;;;;21.65;32.65;97373.31;5102148;28;941;-65
2020/12/28 06:06:42;;;;;;;;;;;;;;;21.67;32.49;97379.31;5101848;28;866;-66
2020/12/28 06:09:07;;;;;;;;;;;;;;;22.25;31.33;97384.44;5102406;28;815;-66
2020/12/28 06:11:33;;;;;;;;;;;;;;;20.99;31.11;97154.66;5102118;28;619;-65
2020/12/28 06:13:59;;;;;;;;;;;;;;;22.02;32.10;97390.56;5102250;28;685;-65
2020/12/28 06:16:24;;;;;;;;;;;;;;;21.76;32.63;97385.06;5102261;28;630;-65
2020/12/28 06:18:56;;;;;;;;;;;;;;;22.07;31.99;97372.97;5101417;28;1052;-65
2020/12/28 06:21:21;;;;;;;;;;;;;;;22.02;31.94;97365.88;5101312;28;1902;-65
2020/12/28 06:23:47;;;;;;;;;;;;;;;21.26;33.50;97389.66;5101671;28;933;-65
2020/12/28 06:26:17;;;;;;;;;;;;;;;22.24;31.54;97384.91;5102277;28;644;-76
2020/12/28 06:28:42;;;;;;;;;;;;;;;21.67;31.84;97396.31;5083857;28;893;-75
2020/12/28 06:31:08;;;;;;;;;;;;;;;21.91;31.10;97398.66;5101975;28;630;-75
2020/12/28 06:33:33;;;;;;;;;;;;;;;21.92;31.15;97403.09;5101366;28;896;-75
2020/12/28 06:35:59;;;;;;;;;;;;;;;21.82;30.93;97399.41;5084138;28;877;-76
2020/12/28 06:38:25;;;;;;;;;;;;;;;21.68;31.13;97403.56;5101546;28;896;-76
2020/12/28 06:40:51;;;;;;;;;;;;;;;21.55;30.90;97399.97;5101934;28;1898;-75
2020/12/28 06:43:20;;;;;;;;;;;;;;;21.23;31.38;97407.53;5083939;28;1108;-76
2020/12/28 06:45:46;;;;;;;;;;;;;;;21.55;30.85;97414.13;5101734;28;647;-75
2020/12/28 06:48:24;;;;;;;;;;;;;;;21.61;30.70;97409.50;5101108;28;1058;-75
2020/12/28 06:50:49;;;;;;;;;;;;;;;21.42;30.96;97404.91;5101074;28;948;-75
2020/12/28 06:53:24;;;;;;;;;;;;;;;21.57;30.24;97400.31;5101326;28;943;-74
2020/12/28 06:55:50;;;;;;;;;;;;;;;21.10;31.25;97406.78;5101081;28;662;-74
2020/12/28 06:58:15;;;;;;;;;;;;;;;21.72;31.02;97398.56;5101020;28;579;-72
2020/12/28 07:00:41;;;;;;;;;;;;;;;22.12;30.83;97395.06;5101813;28;1905;-76
2020/12/28 07:03:12;;;;;;;;;;;;;;;22.19;31.37;97397.63;5101327;28;633;-76
2020/12/28 07:05:41;;;;;;;;;;;;;;;22.46;30.66;97410.38;5102313;28;696;-76
2020/12/28 07:08:07;;;;;;;;;;;;;;;22.71;30.24;97415.03;5083500;28;1028;-76
2020/12/28 07:10:32;;;;;;;;;;;;;;;22.80;29.95;97418.72;5083496;28;845;-75
2020/12/28 07:13:01;;;;;;;;;;;;;;;21.43;31.62;97404.44;5101453;28;884;-66
2020/12/28 07:15:26;;;;;;;;;;;;;;;22.16;31.08;97407.06;5101153;28;610;-67
2020/12/28 07:17:52;;;;;;;;;;;;;;;22.56;30.44;97407.09;5101017;28;685;-67
2020/12/28 07:20:17;;;;;;;;;;;;;;;22.40;30.77;97401.69;5100890;28;676;-77
2020/12/28 07:22:43;;;;;;;;;;;;;;;21.98;31.32;97404.88;5083542;28;1905;-77
2020/12/28 07:25:09;;;;;;;;;;;;;;;21.78;31.54;97407.25;5083488;28;878;-76
2020/12/28 07:27:35;;;;;;;;;;;;;;;21.65;31.83;97412.94;5083945;28;978;-76
2020/12/28 07:30:10;;;;;;;;;;;;;;;21.51;31.73;97413.47;5083189;28;892;-76
2020/12/28 07:32:36;;;;;;;;;;;;;;;21.39;31.80;97428.44;5100826;28;710;-76
2020/12/28 07:35:01;;;;;;;;;;;;;;;21.15;32.25;97434.50;5100836;28;662;-76
2020/12/28 07:37:27;;;;;;;;;;;;;;;21.32;31.78;97427.47;5100693;28;967;-75
2020/12/28 07:39:53;;;;;;;;;;;;;;;21.51;32.02;97427.63;5082900;28;902;-75
2020/12/28 07:42:19;;;;;;;;;;;;;;;22.05;31.31;97426.47;5083080;28;1902;-76
2020/12/28 07:44:50;;;;;;;;;;;;;;;22.34;30.81;97412.84;5100781;28;663;-77
2020/12/28 07:47:15;;;;;;;;;;;;;;;22.54;30.38;97414.50;5101126;28;711;-77
2020/12/28 07:49:41;;;;;;;;;;;;;;;22.48;30.38;97413.50;5083196;28;1020;-77
2020/12/28 07:52:15;;;;;;;;;;;;;;;22.26;30.20;97403.00;5100857;28;840;-77
2020/12/28 07:54:40;;;;;;;;;;;;;;;21.63;30.63;97401.31;5083176;28;904;-77
2020/12/28 07:57:05;;;;;;;;;;;;;;;21.58;30.44;97411.19;5101396;28;733;-77
2020/12/28 07:59:34;;;;;;;;;;;;;;;21.62;30.60;97411.06;5083217;28;763;-76
2020/12/28 08:02:02;;;;;;;;;;;;;;;21.32;31.09;97410.47;5100904;28;1991;-76
2020/12/28 08:04:27;;;;;;;;;;;;;;;21.49;30.54;97408.25;5082803;28;941;-76
2020/12/28 08:06:55;;;;;;;;;;;;;;;21.48;30.73;97401.03;5100387;28;864;-75
2020/12/28 08:09:21;;;;;;;;;;;;;;;21.51;31.32;97396.50;5099765;28;832;-77
2020/12/28 08:12:07;;;;;;;;;;;;;;;22.01;30.28;97384.09;5082517;28;892;-75
2020/12/28 08:14:32;;;;;;;;;;;;;;;22.36;29.56;97396.13;5099974;28;894;-76
2020/12/28 08:16:58;;;;;;;;;;;;;;;22.33;29.73;97402.75;5100492;28;900;-76
2020/12/28 08:19:27;;;;;;;;;;;;;;;22.53;28.88;97399.53;5082666;28;1185;-76
2020/12/28 08:21:53;;;;;;;;;;;;;;;21.89;29.57;97404.03;5082691;28;1902;-75
2020/12/28 08:24:19;;;;;;;;;;;;;;;21.65;30.01;97404.47;5082878;28;646;-77
2020/12/28 08:26:45;;;;;;;;;;;;;;;21.71;29.58;97401.81;5101097;28;682;-77
2020/12/28 08:29:10;;;;;;;;;;;;;;;21.65;29.77;97407.28;5082920;28;714;-76
2020/12/28 08:31:36;;;;;;;;;;;;;;;21.53;30.03;97396.81;5066111;28;1099;-75
2020/12/28 08:34:01;;;;;;;;;;;;;;;21.45;30.04;97399.13;5082434;28;974;-76
2020/12/28 08:36:27;;;;;;;;;;;;;;;21.71;30.85;97388.50;5083388;28;849;-76
2020/12/28 08:38:52;;;;;;;;;;;;;;;22.26;29.29;97386.00;5100320;28;626;-77
2020/12/28 08:41:18;;;;;;;;;;;;;;;22.58;28.68;97379.06;5083363;28;1902;-78
2020/12/28 08:43:46;;;;;;;;;;;;;;;22.38;29.04;97375.03;5082593;28;1002;-77
2020/12/28 08:46:12;;;;;;;;;;;;;;;22.50;28.55;97377.00;5101340;28;910;-81
2020/12/28 08:48:37;;;;;;;;;;;;;;;21.98;29.34;97372.94;5066287;28;1266;-79
2020/12/28 08:51:12;;;;;;;;;;;;;;;21.76;29.52;97382.22;5084467;28;1303;-77
2020/12/28 08:53:38;;;;;;;;;;;;;;;21.47;29.90;97381.69;5100111;28;670;-77
2020/12/28 08:56:03;;;;;;;;;;;;;;;21.51;29.86;97377.47;5100286;28;606;-75
2020/12/28 08:58:29;;;;;;;;;;;;;;;21.38;30.45;97384.44;5099193;28;694;-76
2020/12/28 09:00:54;;;;;;;;;;;;;;;21.26;30.63;97367.00;5102251;28;1894;-75
2020/12/28 09:03:20;;;;;;;;;;;;;;;21.39;30.35;97374.69;5103486;28;888;-75
2020/12/28 09:05:45;;;;;;;;;;;;;;;21.33;30.52;97361.13;5104101;28;846;-75
2020/12/28 09:08:11;;;;;;;;;;;;;;;21.42;29.93;97351.91;5103506;28;626;-75
2020/12/28 09:10:36;;;;;;;;;;;;;;;21.21;30.32;97353.44;5103838;28;654;-77
2020/12/28 09:13:01;;;;;;;;;;;;;;;21.28;30.40;97356.00;5085617;28;989;-76
2020/12/28 09:15:27;;;;;;;;;;;;;;;21.31;30.18;97343.81;5103304;28;835;-74
2020/12/28 09:17:52;;;;;;;;;;;;;;;21.44;30.04;97349.41;5103925;28;841;-74
2020/12/28 09:20:18;;;;;;;;;;;;;;;22.03;29.44;97366.66;5086450;28;630;-75
2020/12/28 09:22:43;;;;;;;;;;;;;;;22.32;28.89;97363.53;5103973;28;1910;-76
2020/12/28 09:25:09;;;;;;;;;;;;;;;22.27;28.84;97369.78;5103504;28;622;-76
2020/12/28 09:27:34;;;;;;;;;;;;;;;20.02;29.32;97095.13;5085413;28;1060;-75
2020/12/28 09:30:00;;;;;;;;;;;;;;;21.64;29.39;97368.91;5103632;28;933;-75
2020/12/28 09:32:26;;;;;;;;;;;;;;;21.63;29.47;97373.00;5108605;28;1138;-75
2020/12/28 09:34:52;;;;;;;;;;;;;;;21.41;29.71;97363.72;5087609;28;1322;-74
2020/12/28 09:37:17;;;;;;;;;;;;;;;21.49;29.83;97362.19;5103209;28;586;-77
2020/12/28 09:39:42;;;;;;;;;;;;;;;22.07;28.83;97344.63;5086234;28;639;-78
2020/12/28 09:42:08;;;;;;;;;;;;;;;22.43;28.38;97348.91;5086050;28;1898;-77
2020/12/28 09:44:33;;;;;;;;;;;;;;;22.10;28.76;97340.88;5102960;28;930;-77
2020/12/28 09:46:59;;;;;;;;;;;;;;;21.68;29.37;97335.59;5103051;28;916;-77
2020/12/28 09:49:24;;;;;;;;;;;;;;;21.23;29.56;97330.34;5103210;28;721;-75
2020/12/28 09:51:53;;;;;;;;;;;;;;;21.31;29.75;97326.84;5103336;28;647;-77
2020/12/28 09:54:18;;;;;;;;;;;;;;;21.48;29.44;97316.13;5103048;28;663;-73
2020/12/28 09:56:44;;;;;;;;;;;;;;;21.81;29.72;97305.19;5102171;28;861;-76
2020/12/28 09:59:09;;;;;;;;;;;;;;;22.38;28.51;97295.69;5102573;28;900;-75
2020/12/28 10:01:35;;;;;;;;;;;;;;;22.36;28.51;97299.78;5102652;28;1906;-74
2020/12/28 10:04:00;;;;;;;;;;;;;;;22.27;28.43;97299.72;5102277;28;622;-74
2020/12/28 10:06:31;;;;;;;;;;;;;;;21.84;28.96;97292.91;5102510;28;646;-75
2020/12/28 10:09:17;;;;;;;;;;;;;;;21.65;29.19;97296.88;5102005;28;820;-75
2020/12/28 10:11:42;;;;;;;;;;;;;;;21.45;29.54;97288.75;5101235;28;1471;-74
2020/12/28 10:14:08;;;;;;;;;;;;;;;21.52;29.34;97290.50;5101821;28;880;-75
2020/12/28 10:16:33;;;;;;;;;;;;;;;21.42;29.56;97297.38;5102578;28;1080;-75
2020/12/28 10:18:59;;;;;;;;;;;;;;;21.24;30.48;97278.97;5084685;28;639;-77
2020/12/28 10:21:25;;;;;;;;;;;;;;;22.00;29.29;97277.72;5085626;28;1910;-76
2020/12/28 10:23:50;;;;;;;;;;;;;;;22.33;28.48;97271.59;5102073;28;680;-76
2020/12/28 10:26:19;;;;;;;;;;;;;;;22.54;28.05;97264.25;5103211;28;967;-77
2020/12/28 10:28:44;;;;;;;;;;;;;;;21.66;29.37;97253.19;5102011;28;898;-76
2020/12/28 10:31:10;;;;;;;;;;;;;;;21.28;29.80;97256.97;5085243;28;973;-75
2020/12/28 10:33:37;;;;;;;;;;;;;;;20.56;30.01;97150.53;5101749;28;658;-74
2020/12/28 10:36:02;;;;;;;;;;;;;;;21.41;29.68;97251.28;5102864;28;654;-76
2020/12/28 10:38:28;;;;;;;;;;;;;;;21.50;29.62;97259.03;5101353;28;975;-75
2020/12/28 10:40:53;;;;;;;;;;;;;;;21.45;30.01;97248.31;5101782;28;1906;-76
2020/12/28 10:43:18;;;;;;;;;;;;;;;21.44;30.28;97241.06;5101546;28;1106;-78
2020/12/28 10:45:44;;;;;;;;;;;;;;;21.98;29.27;97234.13;5102837;28;661;-76
2020/12/28 10:48:09;;;;;;;;;;;;;;;22.40;28.58;97236.50;5102176;28;693;-76
2020/12/28 10:50:35;;;;;;;;;;;;;;;22.57;28.15;97234.94;5102537;28;717;-77
2020/12/28 10:53:00;;;;;;;;;;;;;;;21.68;29.31;97244.22;5101964;28;986;-76
2020/12/28 10:55:26;;;;;;;;;;;;;;;21.53;29.55;97233.44;5101548;28;913;-76
2020/12/28 10:57:51;;;;;;;;;;;;;;;21.75;29.19;97244.72;5101722;28;954;-77
2020/12/28 11:00:17;;;;;;;;;;;;;;;21.54;29.47;97257.66;5102157;28;610;-76
2020/12/28 11:02:42;;;;;;;;;;;;;;;21.24;29.93;97256.34;5102136;28;1953;-76
2020/12/28 11:05:07;;;;;;;;;;;;;;;21.42;29.97;97237.94;5101831;28;737;-76
2020/12/28 11:07:33;;;;;;;;;;;;;;;21.49;29.86;97255.41;5101511;28;896;-76
2020/12/28 11:09:58;;;;;;;;;;;;;;;21.32;29.87;97252.00;5101297;28;874;-76
2020/12/28 11:12:24;;;;;;;;;;;;;;;21.33;30.61;97255.63;5084298;28;1043;-77
2020/12/28 11:14:49;;;;;;;;;;;;;;;21.90;29.40;97261.94;5101441;28;654;-76
2020/12/28 11:17:15;;;;;;;;;;;;;;;22.18;29.09;97259.25;5101403;28;602;-75
2020/12/28 11:19:40;;;;;;;;;;;;;;;22.47;28.58;97267.38;5101166;28;642;-80
2020/12/28 11:22:05;;;;;;;;;;;;;;;22.05;28.85;97273.50;5100967;28;1960;-76
2020/12/28 11:24:31;;;;;;;;;;;;;;;21.50;29.91;97278.84;5100594;28;837;-76
2020/12/28 11:26:56;;;;;;;;;;;;;;;21.44;29.65;97275.03;5101063;28;863;-76
2020/12/28 11:29:22;;;;;;;;;;;;;;;21.47;29.87;97280.56;5101335;28;952;-75
2020/12/28 11:31:47;;;;;;;;;;;;;;;21.37;29.82;97275.31;5101619;28;664;-75
2020/12/28 11:34:13;;;;;;;;;;;;;;;22.12;29.18;97273.22;5101457;28;698;-77
2020/12/28 11:36:42;;;;;;;;;;;;;;;22.52;28.59;97283.75;5083552;28;725;-76
2020/12/28 11:39:09;;;;;;;;;;;;;;;22.18;28.65;97277.06;5100402;28;861;-76
2020/12/28 11:41:35;;;;;;;;;;;;;;;21.76;29.34;97273.81;5066730;28;1969;-77
2020/12/28 11:44:01;;;;;;;;;;;;;;;21.42;29.76;97283.22;5100834;28;991;-77
2020/12/28 11:46:26;;;;;;;;;;;;;;;21.39;29.75;97272.81;5101554;28;659;-77
2020/12/28 11:48:51;;;;;;;;;;;;;;;21.45;29.82;97268.94;5083282;28;669;-76
2020/12/28 11:51:20;;;;;;;;;;;;;;;21.85;29.91;97277.47;5101130;28;736;-76
2020/12/28 11:53:47;;;;;;;;;;;;;;;22.46;28.70;97275.06;5100216;28;1093;-77
2020/12/28 11:56:13;;;;;;;;;;;;;;;22.65;28.15;97275.91;5100982;28;813;-76
2020/12/28 11:58:41;;;;;;;;;;;;;;;22.19;28.59;97264.47;5100256;28;812;-76
2020/12/28 12:01:25;;;;;;;;;;;;;;;21.47;29.75;97276.97;5083487;28;1978;-76
2020/12/28 12:03:50;;;;;;;;;;;;;;;21.59;29.39;97273.25;5100352;28;698;-76
2020/12/28 12:06:21;;;;;;;;;;;;;;;21.62;29.57;97283.66;5101069;28;702;-76
2020/12/28 12:11:30;;;;;;;;;;;;;;;20.95;30.54;97278.41;5100327;28;823;-76
2020/12/28 12:13:56;;;;;;;;;;;;;;;21.72;29.87;97288.13;5100273;28;607;-76
2020/12/28 12:16:22;;;;;;;;;;;;;;;22.26;28.92;97281.16;5100727;28;725;-76
2020/12/28 12:18:47;;;;;;;;;;;;;;;22.57;29.21;97269.75;5082427;28;630;-66
2020/12/28 12:21:13;;;;;;;;;;;;;;;21.57;32.20;97284.25;5099908;28;1905;-66
2020/12/28 12:23:38;;;;;;;;;;;;;;;20.95;34.08;97281.25;5099875;28;825;-66
2020/12/28 12:26:04;;;;;;;;;;;;;;;22.08;32.23;97289.56;5099982;28;801;-66
2020/12/28 12:28:29;;;;;;;;;;;;;;;22.28;32.38;97278.66;5099995;28;898;-67
2020/12/28 12:30:54;;;;;;;;;;;;;;;21.31;34.03;97284.41;5100106;28;698;-67
2020/12/28 12:33:20;;;;;;;;;;;;;;;22.20;32.72;97273.75;5099635;28;670;-66
2020/12/28 12:35:45;;;;;;;;;;;;;;;21.77;33.75;97270.53;5104103;28;693;-64
2020/12/28 12:38:11;;;;;;;;;;;;;;;21.57;34.01;97261.63;5103863;28;936;-66
2020/12/28 12:40:36;;;;;;;;;;;;;;;21.87;33.34;97256.44;5103603;28;885;-67
2020/12/28 12:43:02;;;;;;;;;;;;;;;21.54;33.84;97252.00;5103807;28;1956;-66
2020/12/28 12:45:27;;;;;;;;;;;;;;;21.06;35.01;97251.31;5103904;28;718;-66
2020/12/28 12:47:53;;;;;;;;;;;;;;;21.82;33.49;97238.00;5103925;28;713;-66
2020/12/28 12:50:18;;;;;;;;;;;;;;;21.68;33.26;97238.56;5103880;28;606;-67
2020/12/28 12:52:43;;;;;;;;;;;;;;;21.54;33.62;97240.66;5103657;28;1038;-66
2020/12/28 12:55:09;;;;;;;;;;;;;;;21.61;33.32;97242.47;5103606;28;880;-67
2020/12/28 12:57:35;;;;;;;;;;;;;;;22.14;32.30;97241.63;5103331;28;839;-67
2020/12/28 13:00:07;;;;;;;;;;;;;;;21.64;32.86;97233.03;5103856;28;638;-66
2020/12/28 13:02:33;;;;;;;;;;;;;;;21.16;33.93;97232.38;5103727;28;1973;-66
2020/12/28 13:04:59;;;;;;;;;;;;;;;20.93;34.52;97218.69;5103301;28;550;-67
2020/12/28 13:07:24;;;;;;;;;;;;;;;21.70;33.30;97219.03;5103216;28;933;-66
2020/12/28 13:09:50;;;;;;;;;;;;;;;22.03;32.41;97225.03;5102903;28;937;-66
2020/12/28 13:12:15;;;;;;;;;;;;;;;21.67;32.83;97215.13;5103344;28;1003;-67
2020/12/28 13:14:40;;;;;;;;;;;;;;;21.26;34.05;97197.25;5103448;28;626;-67
2020/12/28 13:17:06;;;;;;;;;;;;;;;21.81;32.49;97176.94;5103478;28;698;-66